createdAt,value
2023-08-17T00:02:25.128Z,27.94
2023-08-17T00:04:57.878Z,27.91
2023-08-17T00:07:30.957Z,27.73
2023-08-17T00:10:05.941Z,27.59
2023-08-17T00:12:38.917Z,27.54
2023-08-17T00:15:12.272Z,27.54
2023-08-17T00:17:45.161Z,27.54
2023-08-17T00:20:18.057Z,27.66
2023-08-17T00:22:50.954Z,27.55
2023-08-17T00:25:25.053Z,27.63
2023-08-17T00:27:57.928Z,27.50
2023-08-17T00:30:31.037Z,27.42
2023-08-17T00:33:03.797Z,27.49
2023-08-17T00:35:36.712Z,27.38
2023-08-17T00:38:09.381Z,27.47
2023-08-17T00:40:43.765Z,27.33
2023-08-17T00:43:16.714Z,27.29
2023-08-17T00:45:49.893Z,27.28
2023-08-17T00:48:22.848Z,27.26
2023-08-17T00:50:56.046Z,27.38
2023-08-17T00:53:31.576Z,27.26
2023-08-17T00:56:08.012Z,27.24
2023-08-17T00:58:41.243Z,27.22
2023-08-17T01:01:15.192Z,27.21
2023-08-17T01:03:48.191Z,27.18
2023-08-17T01:06:23.248Z,27.14
2023-08-17T01:08:57.010Z,27.13
2023-08-17T01:11:38.574Z,27.11
2023-08-17T01:14:21.994Z,27.11
2023-08-17T01:17:02.688Z,27.10
2023-08-17T01:19:36.033Z,27.10
2023-08-17T01:22:10.946Z,27.08
2023-08-17T01:24:45.158Z,27.08
2023-08-17T01:27:18.266Z,27.07
2023-08-17T01:29:51.261Z,27.04
2023-08-17T01:32:28.974Z,27.12
2023-08-17T01:35:14.034Z,27.02
2023-08-17T01:37:47.426Z,26.98
2023-08-17T01:40:23.959Z,26.94
2023-08-17T01:42:57.679Z,26.90
2023-08-17T01:45:30.743Z,26.87
2023-08-17T01:48:03.785Z,26.86
2023-08-17T01:50:37.571Z,26.82
2023-08-17T01:53:10.996Z,26.91
2023-08-17T01:55:45.283Z,26.81
2023-08-17T01:58:18.200Z,26.77
2023-08-17T02:00:50.974Z,26.87
2023-08-17T02:03:23.977Z,26.78
2023-08-17T02:05:57.877Z,26.89
2023-08-17T02:08:31.471Z,26.77
2023-08-17T02:11:05.752Z,26.74
2023-08-17T02:13:38.705Z,26.68
2023-08-17T02:16:11.419Z,26.75
2023-08-17T02:18:44.410Z,26.60
2023-08-17T02:21:17.194Z,26.68
2023-08-17T02:23:50.206Z,26.52
2023-08-17T02:26:24.221Z,26.57
2023-08-17T02:28:57.157Z,26.42
2023-08-17T02:31:31.120Z,26.37
2023-08-17T02:34:06.482Z,26.33
2023-08-17T02:36:39.672Z,26.30
2023-08-17T02:39:12.474Z,26.41
2023-08-17T02:41:50.075Z,26.29
2023-08-17T02:44:23.002Z,26.24
2023-08-17T02:46:56.001Z,26.19
2023-08-17T02:49:28.779Z,26.26
2023-08-17T02:52:03.347Z,26.15
2023-08-17T02:54:36.135Z,26.22
2023-08-17T02:57:10.560Z,26.09
2023-08-17T02:59:43.564Z,26.03
2023-08-17T03:02:16.302Z,26.08
2023-08-17T03:04:49.198Z,25.94
2023-08-17T03:07:22.075Z,25.91
2023-08-17T03:09:54.963Z,25.88
2023-08-17T03:12:29.244Z,25.85
2023-08-17T03:15:02.366Z,25.84
2023-08-17T03:17:35.968Z,25.81
2023-08-17T03:20:10.590Z,25.79
2023-08-17T03:22:43.469Z,25.80
2023-08-17T03:25:16.439Z,25.81
2023-08-17T03:27:51.161Z,25.80
2023-08-17T03:30:24.081Z,25.80
2023-08-17T03:32:57.455Z,25.82
2023-08-17T03:35:30.374Z,25.80
2023-08-17T03:38:03.359Z,25.80
2023-08-17T03:40:36.086Z,25.90
2023-08-17T03:43:10.535Z,25.79
2023-08-17T03:45:44.243Z,25.77
2023-08-17T03:48:17.230Z,25.79
2023-08-17T03:50:53.418Z,25.79
2023-08-17T03:53:26.384Z,25.78
2023-08-17T03:55:59.146Z,25.88
2023-08-17T03:58:35.916Z,25.77
2023-08-17T04:01:09.135Z,25.76
2023-08-17T04:03:41.894Z,25.87
2023-08-17T04:06:15.386Z,25.79
2023-08-17T04:08:49.342Z,25.77
2023-08-17T04:11:22.117Z,25.86
2023-08-17T04:13:56.644Z,25.78
2023-08-17T04:16:29.598Z,25.77
2023-08-17T04:19:02.492Z,25.87
2023-08-17T04:21:36.132Z,25.78
2023-08-17T04:24:09.534Z,25.74
2023-08-17T04:26:42.481Z,25.74
2023-08-17T04:29:16.882Z,25.75
2023-08-17T04:31:50.390Z,25.76
2023-08-17T04:34:23.565Z,25.79
2023-08-17T04:36:56.448Z,25.80
2023-08-17T04:39:29.446Z,25.78
2023-08-17T04:42:04.806Z,25.77
2023-08-17T04:44:41.566Z,25.76
2023-08-17T04:47:14.479Z,25.78
2023-08-17T04:49:48.622Z,25.78
2023-08-17T04:52:21.491Z,25.79
2023-08-17T04:54:54.426Z,25.83
2023-08-17T04:57:28.157Z,25.86
2023-08-17T05:00:04.920Z,25.86
2023-08-17T05:02:38.117Z,25.88
2023-08-17T05:05:12.474Z,25.89
2023-08-17T05:07:46.952Z,25.90
2023-08-17T05:10:20.797Z,25.95
2023-08-17T05:12:54.481Z,26.02
2023-08-17T05:15:28.809Z,26.07
2023-08-17T05:18:02.936Z,26.10
2023-08-17T05:20:36.076Z,26.14
2023-08-17T05:23:09.058Z,26.26
2023-08-17T05:25:41.946Z,26.20
2023-08-17T05:28:14.843Z,26.24
2023-08-17T05:30:49.243Z,26.29
2023-08-17T05:33:22.289Z,26.34
2023-08-17T05:35:56.253Z,26.42
2023-08-17T05:38:29.245Z,26.48
2023-08-17T05:41:03.097Z,26.50
2023-08-17T05:43:36.077Z,26.54
2023-08-17T05:46:10.422Z,26.60
2023-08-17T05:48:43.408Z,26.63
2023-08-17T05:51:16.173Z,26.82
2023-08-17T05:53:49.122Z,26.77
2023-08-17T05:56:22.075Z,26.80
2023-08-17T05:58:55.324Z,26.81
2023-08-17T06:01:29.632Z,26.79
2023-08-17T06:04:03.427Z,26.77
2023-08-17T06:06:37.542Z,26.80
2023-08-17T06:09:10.639Z,26.85
2023-08-17T06:11:49.635Z,26.89
2023-08-17T06:14:23.484Z,26.90
2023-08-17T06:16:58.137Z,26.93
2023-08-17T06:19:31.396Z,26.97
2023-08-17T06:22:04.674Z,26.98
2023-08-17T06:24:37.973Z,27.01
2023-08-17T06:27:11.260Z,27.04
2023-08-17T06:29:45.148Z,27.07
2023-08-17T06:32:19.725Z,27.10
2023-08-17T06:34:55.264Z,27.09
2023-08-17T06:37:28.833Z,27.10
2023-08-17T06:40:02.287Z,27.12
2023-08-17T06:42:35.642Z,27.15
2023-08-17T06:45:10.083Z,27.20
2023-08-17T06:47:44.782Z,27.26
2023-08-17T06:50:18.014Z,27.27
2023-08-17T06:52:51.283Z,27.32
2023-08-17T06:55:24.457Z,27.39
2023-08-17T06:57:57.725Z,27.47
2023-08-17T07:00:31.187Z,27.54
2023-08-17T07:03:06.680Z,27.62
2023-08-17T07:05:39.969Z,27.73
2023-08-17T07:08:14.571Z,27.82
2023-08-17T07:11:05.363Z,27.93
2023-08-17T07:13:41.544Z,28.05
2023-08-17T07:16:15.557Z,28.16
2023-08-17T07:18:53.204Z,28.22
2023-08-17T07:21:27.251Z,28.32
2023-08-17T07:24:00.644Z,28.40
2023-08-17T07:26:33.869Z,28.45
2023-08-17T07:29:07.184Z,28.54
2023-08-17T07:31:42.374Z,28.60
2023-08-17T07:34:18.614Z,28.69
2023-08-17T07:36:51.826Z,28.80
2023-08-17T07:39:25.249Z,28.90
2023-08-17T07:41:58.564Z,29.06
2023-08-17T07:44:32.671Z,29.20
2023-08-17T07:47:06.192Z,29.38
2023-08-17T07:49:40.956Z,29.50
2023-08-17T07:52:16.865Z,29.62
2023-08-17T07:54:50.134Z,29.71
2023-08-17T07:57:23.508Z,29.82
2023-08-17T07:59:56.780Z,29.88
2023-08-17T08:02:54.715Z,29.66
2023-08-17T08:05:30.196Z,29.39
2023-08-17T08:08:03.450Z,29.23
2023-08-17T08:10:36.759Z,29.19
2023-08-17T08:13:09.968Z,29.19
2023-08-17T08:15:43.215Z,29.15
2023-08-17T08:18:16.528Z,29.25
2023-08-17T08:20:51.385Z,29.40
2023-08-17T08:23:24.731Z,29.58
2023-08-17T08:25:59.334Z,29.83
2023-08-17T08:28:32.611Z,30.16
2023-08-17T08:31:06.259Z,30.58
2023-08-17T08:33:39.605Z,31.30
2023-08-17T08:36:14.239Z,32.42
2023-08-17T08:38:47.498Z,33.49
2023-08-17T08:41:22.346Z,34.35
2023-08-17T08:43:55.880Z,35.14
2023-08-17T08:46:33.940Z,35.52
2023-08-17T08:49:08.706Z,35.79
2023-08-17T08:51:46.648Z,36.07
2023-08-17T08:54:23.622Z,36.03
2023-08-17T08:57:01.703Z,36.19
2023-08-17T08:59:38.054Z,35.84
2023-08-17T09:02:13.649Z,35.21
2023-08-17T09:04:47.759Z,34.53
2023-08-17T09:07:24.823Z,33.94
2023-08-17T09:09:58.773Z,33.47
2023-08-17T09:12:39.489Z,33.11
2023-08-17T09:15:13.556Z,32.90
2023-08-17T09:17:48.954Z,32.85
2023-08-17T09:20:40.048Z,33.08
2023-08-17T09:23:15.666Z,33.59
2023-08-17T09:25:50.321Z,34.12
2023-08-17T09:28:23.381Z,34.14
2023-08-17T09:30:57.541Z,34.60
2023-08-17T09:33:32.863Z,35.88
2023-08-17T09:36:06.054Z,37.16
2023-08-17T09:38:40.504Z,38.42
2023-08-17T09:41:14.894Z,39.33
2023-08-17T09:43:48.382Z,40.01
2023-08-17T09:46:21.487Z,40.61
2023-08-17T09:48:55.905Z,41.24
2023-08-17T09:51:28.965Z,41.44
2023-08-17T09:54:05.141Z,42.04
2023-08-17T09:56:39.677Z,42.61
2023-08-17T09:59:12.589Z,43.02
2023-08-17T10:01:48.257Z,43.29
2023-08-17T10:04:24.241Z,43.48
2023-08-17T10:07:02.024Z,43.69
2023-08-17T10:09:41.209Z,43.99
2023-08-17T10:12:18.442Z,44.18
2023-08-17T10:14:54.115Z,44.35
2023-08-17T10:17:29.179Z,44.51
2023-08-17T10:20:03.737Z,44.80
2023-08-17T10:22:44.239Z,45.03
2023-08-17T10:25:19.128Z,45.13
2023-08-17T10:30:32.817Z,45.36
2023-08-17T10:33:07.220Z,45.60
2023-08-17T10:35:41.673Z,45.83
2023-08-17T10:38:14.922Z,45.86
2023-08-17T10:41:17.822Z,45.83
2023-08-17T10:43:58.714Z,45.42
2023-08-17T10:46:37.043Z,45.10
2023-08-17T10:49:26.937Z,44.96
2023-08-17T10:52:04.735Z,44.86
2023-08-17T10:54:41.261Z,44.65
2023-08-17T10:57:36.130Z,44.46
2023-08-17T11:00:25.406Z,44.24
2023-08-17T11:03:02.742Z,44.09
2023-08-17T11:05:44.752Z,43.91
2023-08-17T11:08:23.106Z,43.87
2023-08-17T11:11:06.009Z,43.76
2023-08-17T11:13:42.017Z,43.37
2023-08-17T11:16:18.730Z,43.00
2023-08-17T11:18:52.212Z,42.67
2023-08-17T11:21:25.391Z,42.16
2023-08-17T11:23:59.888Z,41.63
2023-08-17T11:26:35.352Z,41.27
2023-08-17T11:29:13.033Z,40.90
2023-08-17T11:31:51.132Z,40.56
2023-08-17T11:34:24.301Z,40.14
2023-08-17T11:36:59.884Z,39.77
2023-08-17T11:39:37.937Z,39.44
2023-08-17T11:42:13.559Z,39.10
2023-08-17T11:44:54.179Z,38.90
2023-08-17T11:47:32.592Z,38.84
2023-08-17T11:50:19.966Z,38.81
2023-08-17T11:52:54.545Z,38.75
2023-08-17T11:55:27.801Z,38.60
2023-08-17T11:58:09.761Z,38.37
2023-08-17T12:00:46.652Z,38.03
2023-08-17T12:03:20.610Z,37.70
2023-08-17T12:05:53.665Z,37.43
2023-08-17T12:08:26.744Z,37.28
2023-08-17T12:10:59.931Z,37.28
2023-08-17T12:13:35.975Z,37.33
2023-08-17T12:16:17.259Z,37.34
2023-08-17T12:18:50.586Z,37.36
2023-08-17T12:21:24.548Z,37.25
2023-08-17T12:23:57.706Z,37.05
2023-08-17T12:26:31.075Z,36.88
2023-08-17T12:29:07.223Z,36.61
2023-08-17T12:31:41.687Z,36.39
2023-08-17T12:34:14.646Z,36.23
2023-08-17T12:36:47.736Z,36.12
2023-08-17T12:39:20.688Z,36.01
2023-08-17T12:41:53.561Z,35.92
2023-08-17T12:44:26.527Z,35.78
2023-08-17T12:47:01.034Z,35.77
2023-08-17T12:52:11.944Z,35.81
2023-08-17T12:54:45.027Z,35.80
2023-08-17T12:57:17.977Z,35.78
2023-08-17T12:59:50.878Z,35.75
2023-08-17T13:02:26.102Z,35.73
2023-08-17T13:04:59.454Z,35.76
2023-08-17T13:07:32.522Z,35.77
2023-08-17T13:10:06.024Z,35.73
2023-08-17T13:12:38.936Z,35.77
2023-08-17T13:15:12.083Z,35.72
2023-08-17T13:17:46.663Z,35.57
2023-08-17T13:20:19.632Z,35.46
2023-08-17T13:22:52.628Z,35.34
2023-08-17T13:25:25.610Z,35.32
2023-08-17T13:27:58.603Z,35.37
2023-08-17T13:30:31.522Z,35.43
2023-08-17T13:33:07.626Z,35.48
2023-08-17T13:35:41.016Z,35.52
2023-08-17T13:38:15.868Z,35.54
2023-08-17T13:40:51.360Z,35.57
2023-08-17T13:43:24.412Z,35.58
2023-08-17T13:45:57.331Z,35.59
2023-08-17T13:48:31.705Z,35.64
2023-08-17T13:51:04.729Z,35.73
2023-08-17T13:53:37.922Z,35.79
2023-08-17T13:56:13.529Z,35.85
2023-08-17T13:58:46.528Z,35.89
2023-08-17T14:01:19.831Z,35.85
2023-08-17T14:03:54.278Z,35.77
2023-08-17T14:06:27.288Z,35.67
2023-08-17T14:09:00.208Z,35.55
2023-08-17T14:11:33.394Z,35.36
2023-08-17T14:14:08.432Z,35.20
2023-08-17T14:16:41.625Z,35.06
2023-08-17T14:19:18.711Z,35.02
2023-08-17T14:21:52.302Z,34.97
2023-08-17T14:24:25.195Z,34.99
2023-08-17T14:26:59.306Z,35.03
2023-08-17T14:29:32.232Z,35.09
2023-08-17T14:32:05.587Z,35.12
2023-08-17T14:34:39.930Z,35.11
2023-08-17T14:37:12.838Z,35.06
2023-08-17T14:39:45.825Z,35.05
2023-08-17T14:42:18.749Z,35.04
2023-08-17T14:44:51.641Z,35.04
2023-08-17T14:47:24.951Z,35.06
2023-08-17T14:49:59.325Z,35.08
2023-08-17T14:52:34.468Z,35.10
2023-08-17T14:55:08.249Z,35.09
2023-08-17T14:57:41.083Z,35.07
2023-08-17T15:00:17.018Z,35.02
2023-08-17T15:02:50.840Z,35.00
2023-08-17T15:05:28.856Z,34.93
2023-08-17T15:08:02.157Z,34.88
2023-08-17T15:10:35.527Z,34.88
2023-08-17T15:13:11.397Z,34.85
2023-08-17T15:15:44.636Z,34.93
2023-08-17T15:18:17.662Z,34.99
2023-08-17T15:20:51.978Z,35.00
2023-08-17T15:23:24.850Z,35.02
2023-08-17T15:25:57.789Z,35.01
2023-08-17T15:28:32.932Z,35.01
2023-08-17T15:31:06.751Z,35.02
2023-08-17T15:33:39.724Z,35.05
2023-08-17T15:36:14.039Z,35.03
2023-08-17T15:38:46.906Z,35.06
2023-08-17T15:41:20.435Z,35.06
2023-08-17T15:43:53.381Z,34.97
2023-08-17T15:46:26.481Z,34.85
2023-08-17T15:48:59.660Z,34.82
2023-08-17T15:51:34.008Z,34.68
2023-08-17T15:54:07.205Z,34.50
2023-08-17T15:56:40.220Z,34.40
2023-08-17T15:59:13.364Z,34.32
2023-08-17T16:01:46.358Z,34.25
2023-08-17T16:04:19.386Z,34.20
2023-08-17T16:06:53.761Z,34.16
2023-08-17T16:09:30.764Z,34.14
2023-08-17T16:12:04.225Z,34.09
2023-08-17T16:14:37.176Z,33.99
2023-08-17T16:17:10.169Z,33.94
2023-08-17T16:19:43.121Z,33.89
2023-08-17T16:22:17.696Z,33.85
2023-08-17T16:24:50.611Z,33.82
2023-08-17T16:27:23.632Z,33.76
2023-08-17T16:29:56.602Z,33.75
2023-08-17T16:32:30.178Z,33.70
2023-08-17T16:35:03.192Z,33.69
2023-08-17T16:37:40.934Z,33.66
2023-08-17T16:40:27.702Z,33.57
2023-08-17T16:43:05.517Z,33.45
2023-08-17T16:45:40.646Z,33.41
2023-08-17T16:48:13.645Z,33.36
2023-08-17T16:50:46.762Z,33.33
2023-08-17T16:53:21.707Z,33.23
2023-08-17T16:55:55.777Z,33.14
2023-08-17T16:58:29.007Z,32.94
2023-08-17T17:01:03.956Z,32.73
2023-08-17T17:03:38.752Z,32.43
2023-08-17T17:06:14.778Z,32.05
2023-08-17T17:08:49.009Z,31.71
2023-08-17T17:11:22.000Z,31.37
2023-08-17T17:13:57.597Z,31.03
2023-08-17T17:16:31.600Z,30.82
2023-08-17T17:19:04.557Z,30.64
2023-08-17T17:21:37.420Z,30.42
2023-08-17T17:24:11.829Z,30.25
2023-08-17T17:26:44.664Z,30.03
2023-08-17T17:29:19.155Z,29.81
2023-08-17T17:31:52.998Z,29.63
2023-08-17T17:34:25.920Z,29.49
2023-08-17T17:36:58.774Z,29.35
2023-08-17T17:39:33.964Z,29.20
2023-08-17T17:42:07.227Z,29.07
2023-08-17T17:44:40.100Z,29.02
2023-08-17T17:47:12.842Z,29.02
2023-08-17T17:49:45.772Z,28.91
2023-08-17T17:52:19.363Z,28.88
2023-08-17T17:54:53.582Z,28.78
2023-08-17T17:57:26.888Z,28.68
2023-08-17T18:00:00.433Z,28.58
2023-08-17T18:02:33.423Z,28.48
2023-08-17T18:05:08.104Z,28.40
2023-08-17T18:07:41.189Z,28.39
2023-08-17T18:10:15.726Z,28.35
2023-08-17T18:12:48.673Z,28.22
2023-08-17T18:15:21.562Z,28.14
2023-08-17T18:17:54.498Z,27.93
2023-08-17T18:20:27.878Z,27.82
2023-08-17T18:23:02.013Z,27.76
2023-08-17T18:25:36.365Z,27.69
2023-08-17T18:28:09.547Z,27.68
2023-08-17T18:30:42.471Z,27.72
2023-08-17T18:33:15.210Z,27.86
2023-08-17T18:35:48.180Z,27.81
2023-08-17T18:38:20.882Z,27.93
2023-08-17T18:40:55.084Z,27.82
2023-08-17T18:43:27.997Z,27.81
2023-08-17T18:46:00.690Z,27.94
2023-08-17T18:48:33.752Z,27.82
2023-08-17T18:51:06.755Z,27.81
2023-08-17T18:53:39.612Z,27.80
2023-08-17T18:56:13.662Z,27.94
2023-08-17T18:58:46.552Z,27.85
2023-08-17T19:01:19.480Z,27.83
2023-08-17T19:03:52.650Z,27.82
2023-08-17T19:06:25.613Z,27.81
2023-08-17T19:08:58.369Z,27.93
2023-08-17T19:11:32.637Z,27.83
2023-08-17T19:14:07.741Z,27.82
2023-08-17T19:16:40.676Z,27.83
2023-08-17T19:19:13.335Z,27.93
2023-08-17T19:21:46.271Z,27.81
2023-08-17T19:24:19.296Z,27.78
2023-08-17T19:26:53.694Z,27.75
2023-08-17T19:29:26.841Z,27.74
2023-08-17T19:31:59.970Z,27.73
2023-08-17T19:34:33.312Z,27.73
2023-08-17T19:37:06.590Z,27.72
2023-08-17T19:39:39.452Z,27.70
2023-08-17T19:42:13.761Z,27.68
2023-08-17T19:44:46.735Z,27.68
2023-08-17T19:47:21.260Z,27.81
2023-08-17T19:49:54.251Z,27.72
2023-08-17T19:52:27.033Z,27.83
2023-08-17T19:55:00.001Z,27.74
2023-08-17T19:57:34.033Z,27.85
2023-08-17T20:00:10.031Z,27.71
2023-08-17T20:02:52.856Z,27.64
2023-08-17T20:05:25.891Z,27.61
2023-08-17T20:07:58.731Z,27.70
2023-08-17T20:10:31.883Z,27.58
2023-08-17T20:13:06.398Z,27.53
2023-08-17T20:15:39.427Z,27.49
2023-08-17T20:18:12.812Z,27.59
2023-08-17T20:20:51.119Z,27.58
2023-08-17T20:23:24.568Z,27.42
2023-08-17T20:25:58.418Z,27.35
2023-08-17T20:28:32.755Z,27.30
2023-08-17T20:31:06.215Z,27.25
2023-08-17T20:33:40.278Z,27.18
2023-08-17T20:36:17.787Z,27.13
2023-08-17T20:38:53.037Z,27.10
2023-08-17T20:41:25.960Z,27.05
2023-08-17T20:44:00.247Z,26.98
2023-08-17T20:46:33.165Z,26.93
2023-08-17T20:49:06.224Z,27.00
2023-08-17T20:51:40.153Z,26.91
2023-08-17T20:54:15.445Z,26.88
2023-08-17T20:56:48.329Z,26.85
2023-08-17T20:59:22.551Z,26.87
2023-08-17T21:01:55.479Z,26.88
2023-08-17T21:04:28.205Z,27.00
2023-08-17T21:07:01.066Z,26.92
2023-08-17T21:09:34.020Z,26.94
2023-08-17T21:12:07.561Z,26.92
2023-08-17T21:14:41.600Z,27.05
2023-08-17T21:17:14.556Z,26.93
2023-08-17T21:19:47.249Z,27.06
2023-08-17T21:22:20.153Z,26.94
2023-08-17T21:24:52.884Z,27.07
2023-08-17T21:27:26.038Z,26.95
2023-08-17T21:30:00.821Z,26.92
2023-08-17T21:32:33.716Z,26.91
2023-08-17T21:35:07.530Z,26.90
2023-08-17T21:37:41.538Z,26.75
2023-08-17T21:40:14.465Z,26.51
2023-08-17T21:42:47.140Z,26.42
2023-08-17T21:45:21.608Z,26.19
2023-08-17T21:47:54.492Z,26.06
2023-08-17T21:50:27.416Z,25.95
2023-08-17T21:53:00.292Z,25.85
2023-08-17T21:55:33.180Z,25.80
2023-08-17T21:58:06.390Z,25.79
2023-08-17T22:00:42.734Z,25.80
2023-08-17T22:03:17.520Z,25.74
2023-08-17T22:05:50.634Z,25.69
2023-08-17T22:08:23.787Z,25.63
2023-08-17T22:10:56.722Z,25.55
2023-08-17T22:13:29.727Z,25.49
2023-08-17T22:16:03.890Z,25.54
2023-08-17T22:18:36.747Z,25.48
2023-08-17T22:21:09.715Z,25.49
2023-08-17T22:23:42.398Z,25.63
2023-08-17T22:26:15.271Z,25.61
2023-08-17T22:28:48.139Z,25.64
2023-08-17T22:31:22.455Z,25.67
2023-08-17T22:33:55.368Z,25.68
2023-08-17T22:36:28.766Z,25.68
2023-08-17T22:39:01.622Z,25.70
2023-08-17T22:41:34.551Z,25.71
2023-08-17T22:44:06.707Z,25.70
2023-08-17T22:46:40.994Z,25.71
2023-08-17T22:49:13.850Z,25.71
2023-08-17T22:51:47.072Z,25.73
2023-08-17T22:54:20.027Z,25.76
2023-08-17T22:56:53.653Z,25.77
2023-08-17T22:59:27.538Z,25.80
2023-08-17T23:02:02.024Z,25.82
2023-08-17T23:04:35.039Z,25.85
2023-08-17T23:07:07.932Z,25.87
2023-08-17T23:09:40.907Z,25.86
2023-08-17T23:12:14.725Z,25.86
2023-08-17T23:14:47.686Z,25.86
2023-08-17T23:17:21.882Z,25.87
2023-08-17T23:19:54.955Z,25.89
2023-08-17T23:22:27.659Z,26.03
2023-08-17T23:25:04.087Z,25.91
2023-08-17T23:27:37.039Z,25.90
2023-08-17T23:30:11.304Z,26.02
2023-08-17T23:32:45.662Z,25.91
2023-08-17T23:35:18.700Z,25.88
2023-08-17T23:37:51.402Z,25.97
2023-08-17T23:40:24.291Z,25.83
2023-08-17T23:42:57.187Z,25.80
2023-08-17T23:45:30.111Z,25.76
2023-08-17T23:48:04.771Z,25.70
2023-08-17T23:50:37.983Z,25.64
2023-08-17T23:53:10.680Z,25.73
2023-08-17T23:55:43.554Z,25.52
2023-08-17T23:58:17.507Z,25.44
